createdAt,value
2018-12-29T00:01:50.626Z,12.17
2018-12-29T00:04:21.583Z,13.10
2018-12-29T00:06:52.366Z,15.63
2018-12-29T00:09:23.400Z,13.03
2018-12-29T00:11:54.580Z,15.07
2018-12-29T00:14:25.462Z,14.97
2018-12-29T00:16:56.346Z,14.93
2018-12-29T00:19:27.657Z,15.97
2018-12-29T00:21:59.989Z,13.93
2018-12-29T00:24:30.737Z,13.07
2018-12-29T00:27:01.840Z,15.00
2018-12-29T00:29:32.991Z,14.77
2018-12-29T00:32:04.544Z,14.70
2018-12-29T00:34:35.518Z,13.80
2018-12-29T00:37:06.691Z,13.60
2018-12-29T00:39:38.183Z,15.13
2018-12-29T00:42:09.060Z,16.20
2018-12-29T00:44:39.939Z,14.90
2018-12-29T00:47:10.828Z,14.77
2018-12-29T00:49:41.711Z,15.23
2018-12-29T00:52:12.866Z,16.80
2018-12-29T00:54:44.506Z,15.20
2018-12-29T00:57:15.409Z,14.13
2018-12-29T00:59:46.126Z,15.70
2018-12-29T01:02:17.070Z,14.30
2018-12-29T01:04:48.465Z,14.80
2018-12-29T01:07:19.415Z,14.13
2018-12-29T01:09:50.413Z,13.77
2018-12-29T01:12:21.606Z,13.97
2018-12-29T01:14:52.489Z,12.27
2018-12-29T01:17:23.584Z,13.30
2018-12-29T01:19:54.511Z,14.13
2018-12-29T01:22:25.557Z,12.77
2018-12-29T01:24:56.456Z,12.47
2018-12-29T01:27:27.848Z,11.80
2018-12-29T01:29:58.588Z,10.80
2018-12-29T01:32:29.361Z,12.10
2018-12-29T01:35:00.171Z,10.93
2018-12-29T01:37:31.040Z,11.57
2018-12-29T01:40:02.543Z,10.90
2018-12-29T01:42:33.428Z,13.80
2018-12-29T01:45:04.410Z,9.50
2018-12-29T01:47:35.402Z,10.77
2018-12-29T01:50:06.579Z,11.17
2018-12-29T01:52:37.846Z,10.97
2018-12-29T01:55:08.866Z,12.83
2018-12-29T01:57:40.133Z,12.77
2018-12-29T02:00:11.479Z,12.70
2018-12-29T02:02:42.356Z,11.00
2018-12-29T02:05:14.326Z,10.07
2018-12-29T02:07:45.176Z,10.40
2018-12-29T02:10:16.618Z,10.60
2018-12-29T02:12:47.498Z,10.10
2018-12-29T02:15:24.691Z,10.77
2018-12-29T02:17:51.292Z,13.10
2018-12-29T02:20:22.675Z,9.57
2018-12-29T02:22:53.558Z,9.00
2018-12-29T02:25:25.065Z,9.07
2018-12-29T02:27:56.303Z,7.90
2018-12-29T02:30:28.948Z,11.40
2018-12-29T02:32:59.939Z,9.17
2018-12-29T02:35:30.873Z,9.60
2018-12-29T02:38:01.950Z,8.80
2018-12-29T02:40:32.928Z,9.20
2018-12-29T02:43:03.822Z,10.30
2018-12-29T02:45:34.705Z,9.67
2018-12-29T02:48:05.606Z,9.77
2018-12-29T02:50:37.099Z,8.70
2018-12-29T02:53:07.985Z,9.87
2018-12-29T02:55:38.983Z,9.60
2018-12-29T02:58:09.864Z,8.47
2018-12-29T03:00:41.050Z,10.30
2018-12-29T03:03:11.746Z,8.10
2018-12-29T03:05:42.827Z,8.20
2018-12-29T03:08:13.982Z,7.60
2018-12-29T03:10:44.802Z,8.90
2018-12-29T03:13:15.775Z,8.47
2018-12-29T03:15:46.746Z,7.40
2018-12-29T03:18:19.025Z,7.90
2018-12-29T03:20:50.006Z,7.90
2018-12-29T03:23:20.807Z,7.13
2018-12-29T03:25:52.942Z,7.40
2018-12-29T03:28:23.814Z,6.73
2018-12-29T03:30:55.607Z,6.43
2018-12-29T03:33:26.525Z,7.13
2018-12-29T03:35:57.409Z,6.70
2018-12-29T03:38:29.267Z,5.60
2018-12-29T03:41:00.032Z,6.87
2018-12-29T03:43:31.217Z,5.73
2018-12-29T03:46:02.367Z,6.03
2018-12-29T03:48:33.501Z,7.83
2018-12-29T03:51:04.370Z,5.93
2018-12-29T03:53:35.584Z,5.80
2018-12-29T03:56:06.732Z,7.87
2018-12-29T03:58:37.874Z,6.80
2018-12-29T04:01:08.645Z,5.63
2018-12-29T04:03:39.928Z,6.23
2018-12-29T04:06:11.094Z,5.10
2018-12-29T04:08:43.275Z,6.30
2018-12-29T04:11:14.075Z,5.63
2018-12-29T04:13:45.138Z,5.43
2018-12-29T04:16:16.694Z,5.60
2018-12-29T04:18:47.377Z,5.60
2018-12-29T04:21:18.136Z,6.83
2018-12-29T04:23:48.924Z,6.10
2018-12-29T04:26:19.861Z,5.90
2018-12-29T04:28:50.801Z,6.47
2018-12-29T04:31:21.374Z,6.40
2018-12-29T04:33:52.279Z,5.60
2018-12-29T04:36:22.997Z,5.90
2018-12-29T04:38:54.117Z,6.33
2018-12-29T04:41:25.156Z,5.90
2018-12-29T04:43:55.921Z,6.70
2018-12-29T04:46:27.557Z,7.47
2018-12-29T04:48:58.307Z,5.33
2018-12-29T04:51:29.298Z,5.47
2018-12-29T04:54:00.389Z,5.50
2018-12-29T04:56:31.281Z,6.20
2018-12-29T04:59:01.957Z,6.60
2018-12-29T05:01:32.742Z,5.77
2018-12-29T05:04:03.515Z,6.23
2018-12-29T05:06:34.310Z,5.30
2018-12-29T05:09:06.623Z,5.73
2018-12-29T05:11:37.751Z,6.20
2018-12-29T05:14:08.509Z,5.67
2018-12-29T05:16:39.480Z,5.30
2018-12-29T05:19:10.336Z,3.80
2018-12-29T05:21:41.339Z,4.77
2018-12-29T05:24:12.048Z,5.37
2018-12-29T05:26:42.810Z,4.47
2018-12-29T05:29:13.775Z,4.57
2018-12-29T05:31:44.816Z,4.00
2018-12-29T05:34:15.659Z,4.10
2018-12-29T05:36:46.439Z,4.40
2018-12-29T05:39:17.670Z,3.80
2018-12-29T05:41:48.418Z,3.73
2018-12-29T05:44:19.241Z,4.67
2018-12-29T05:46:50.460Z,4.83
2018-12-29T05:49:21.125Z,3.80
2018-12-29T05:51:52.020Z,4.10
2018-12-29T05:54:22.908Z,3.57
2018-12-29T05:56:53.695Z,2.87
2018-12-29T05:59:24.490Z,3.60
2018-12-29T06:01:55.669Z,3.93
2018-12-29T06:04:26.492Z,3.40
2018-12-29T06:06:57.509Z,2.97
2018-12-29T06:09:28.293Z,2.63
2018-12-29T06:11:59.074Z,2.43
2018-12-29T06:14:30.005Z,2.90
2018-12-29T06:17:01.096Z,2.37
2018-12-29T06:19:32.262Z,2.83
2018-12-29T06:22:03.075Z,3.60
2018-12-29T06:24:34.079Z,2.60
2018-12-29T06:27:04.950Z,2.83
2018-12-29T06:29:35.893Z,3.63
2018-12-29T06:32:06.668Z,3.60
2018-12-29T06:34:37.900Z,2.60
2018-12-29T06:37:08.654Z,2.90
2018-12-29T06:39:39.901Z,2.90
2018-12-29T06:42:10.815Z,2.87
2018-12-29T06:44:42.471Z,4.10
2018-12-29T06:47:13.438Z,3.33
2018-12-29T06:49:44.552Z,2.07
2018-12-29T06:52:15.693Z,2.40
2018-12-29T06:54:46.497Z,2.83
2018-12-29T06:57:17.404Z,2.13
2018-12-29T06:59:48.286Z,2.33
2018-12-29T07:02:19.259Z,2.23
2018-12-29T07:04:49.950Z,4.50
2018-12-29T07:07:20.837Z,2.77
2018-12-29T07:09:51.899Z,2.33
2018-12-29T07:12:22.717Z,2.23
2018-12-29T07:14:53.912Z,2.27
2018-12-29T07:17:24.693Z,3.23
2018-12-29T07:19:55.729Z,1.80
2018-12-29T07:22:26.465Z,2.37
2018-12-29T07:24:57.685Z,1.83
2018-12-29T07:27:29.234Z,2.00
2018-12-29T07:30:00.093Z,3.13
2018-12-29T07:32:30.954Z,2.53
2018-12-29T07:35:02.060Z,2.20
2018-12-29T07:37:33.269Z,1.80
2018-12-29T07:40:04.901Z,2.53
2018-12-29T07:42:36.106Z,1.83
2018-12-29T07:45:07.025Z,1.67
2018-12-29T07:47:38.179Z,4.03
2018-12-29T07:50:09.109Z,2.23
2018-12-29T07:52:40.511Z,2.47
2018-12-29T07:55:11.610Z,2.33
2018-12-29T07:57:42.753Z,2.07
2018-12-29T08:00:13.899Z,2.70
2018-12-29T08:02:45.141Z,2.23
2018-12-29T08:05:16.116Z,2.80
2018-12-29T08:07:47.027Z,1.90
2018-12-29T08:10:17.954Z,2.10
2018-12-29T08:12:48.931Z,2.67
2018-12-29T08:15:20.217Z,1.63
2018-12-29T08:17:51.259Z,2.63
2018-12-29T08:20:22.094Z,2.20
2018-12-29T08:22:52.894Z,3.63
2018-12-29T08:25:25.233Z,2.80
2018-12-29T08:27:55.999Z,2.43
2018-12-29T08:30:27.157Z,2.43
2018-12-29T08:32:58.117Z,3.20
2018-12-29T08:35:28.962Z,2.93
2018-12-29T08:38:00.215Z,2.97
2018-12-29T08:40:31.105Z,3.23
2018-12-29T08:43:02.026Z,3.00
2018-12-29T08:45:32.601Z,3.70
2018-12-29T08:48:03.175Z,3.33
2018-12-29T08:50:33.757Z,2.57
2018-12-29T08:53:04.468Z,3.53
2018-12-29T08:55:35.191Z,2.93
2018-12-29T08:58:06.374Z,4.20
2018-12-29T09:00:37.535Z,3.17
2018-12-29T09:03:09.663Z,4.90
2018-12-29T09:05:41.360Z,4.50
2018-12-29T09:08:12.136Z,4.57
2018-12-29T09:10:43.215Z,3.50
2018-12-29T09:13:14.208Z,3.63
2018-12-29T09:15:46.959Z,4.50
2018-12-29T09:18:20.358Z,3.43
2018-12-29T09:20:51.487Z,3.30
2018-12-29T09:23:22.424Z,3.90
2018-12-29T09:25:53.281Z,3.27
2018-12-29T09:28:26.188Z,3.37
2018-12-29T09:30:57.036Z,3.20
2018-12-29T09:33:27.824Z,3.90
2018-12-29T09:35:59.083Z,4.10
2018-12-29T09:38:30.226Z,2.83
2018-12-29T09:41:01.368Z,3.10
2018-12-29T09:43:32.192Z,3.70
2018-12-29T09:46:03.160Z,3.67
2018-12-29T09:48:33.929Z,3.73
2018-12-29T09:51:04.892Z,3.73
2018-12-29T09:53:36.020Z,3.70
2018-12-29T09:56:08.238Z,3.63
2018-12-29T09:58:39.037Z,4.20
2018-12-29T10:01:09.849Z,3.63
2018-12-29T10:03:41.026Z,3.53
2018-12-29T10:06:12.390Z,4.17
2018-12-29T10:08:43.522Z,3.20
2018-12-29T10:11:14.338Z,4.10
2018-12-29T10:13:45.401Z,5.37
2018-12-29T10:16:16.222Z,3.90
2018-12-29T10:18:47.056Z,4.70
2018-12-29T10:21:17.943Z,5.20
2018-12-29T10:23:49.264Z,6.07
2018-12-29T10:26:20.174Z,5.63
2018-12-29T10:28:50.961Z,6.30
2018-12-29T10:31:21.999Z,5.63
2018-12-29T10:33:53.325Z,4.80
2018-12-29T10:36:24.129Z,4.40
2018-12-29T10:38:55.127Z,5.30
2018-12-29T10:41:26.022Z,4.33
2018-12-29T10:43:56.697Z,6.23
2018-12-29T10:46:27.714Z,5.93
2018-12-29T10:48:58.652Z,5.50
2018-12-29T10:51:29.578Z,6.27
2018-12-29T10:54:01.264Z,6.17
2018-12-29T10:56:32.271Z,6.87
2018-12-29T10:59:03.160Z,7.00
2018-12-29T11:01:34.133Z,7.40
2018-12-29T11:04:05.426Z,6.10
2018-12-29T11:06:36.266Z,8.70
2018-12-29T11:09:07.717Z,9.07
2018-12-29T11:11:38.933Z,9.47
2018-12-29T11:14:10.176Z,10.90
2018-12-29T11:16:41.308Z,12.47
2018-12-29T11:19:12.466Z,13.60
2018-12-29T11:21:43.669Z,16.57
2018-12-29T11:24:14.461Z,16.33
2018-12-29T11:26:45.493Z,18.13
2018-12-29T11:29:16.346Z,18.57
2018-12-29T11:31:47.152Z,19.40
2018-12-29T11:34:18.111Z,28.33
2018-12-29T11:36:48.918Z,26.93
2018-12-29T11:39:19.907Z,24.57
2018-12-29T11:41:50.701Z,23.70
2018-12-29T11:44:21.489Z,26.93
2018-12-29T11:46:52.565Z,23.93
2018-12-29T11:49:23.348Z,26.90
2018-12-29T11:51:54.145Z,24.57
2018-12-29T11:54:25.328Z,25.50
2018-12-29T11:56:56.586Z,24.93
2018-12-29T11:59:27.686Z,24.10
2018-12-29T12:01:58.755Z,26.03
2018-12-29T12:04:29.651Z,25.87
2018-12-29T12:07:00.738Z,25.80
2018-12-29T12:09:31.630Z,23.63
2018-12-29T12:12:02.602Z,23.90
2018-12-29T12:14:33.367Z,26.27
2018-12-29T12:17:04.233Z,26.97
2018-12-29T12:19:35.105Z,26.90
2018-12-29T12:22:06.125Z,27.73
2018-12-29T12:24:37.270Z,30.17
2018-12-29T12:27:07.947Z,26.80
2018-12-29T12:29:39.072Z,29.20
2018-12-29T12:32:09.943Z,30.40
2018-12-29T12:34:40.866Z,32.70
2018-12-29T12:37:11.753Z,28.40
2018-12-29T12:39:42.953Z,29.03
2018-12-29T12:42:14.030Z,31.10
2018-12-29T12:44:45.190Z,29.70
2018-12-29T12:47:16.206Z,30.57
2018-12-29T12:49:47.173Z,29.07
2018-12-29T12:52:18.425Z,30.63
2018-12-29T12:54:49.377Z,28.00
2018-12-29T12:57:20.585Z,27.10
2018-12-29T12:59:51.719Z,28.47
2018-12-29T13:02:22.606Z,27.80
2018-12-29T13:04:53.384Z,26.93
2018-12-29T13:07:24.445Z,27.33
2018-12-29T13:09:55.287Z,29.60
2018-12-29T13:12:26.118Z,27.77
2018-12-29T13:14:56.957Z,28.67
2018-12-29T13:17:28.199Z,27.07
2018-12-29T13:19:58.960Z,24.37
2018-12-29T13:22:30.529Z,25.77
2018-12-29T13:25:01.633Z,21.40
2018-12-29T13:27:32.448Z,23.23
2018-12-29T13:30:03.498Z,22.27
2018-12-29T13:32:34.434Z,19.20
2018-12-29T13:35:05.286Z,18.60
2018-12-29T13:37:35.857Z,19.60
2018-12-29T13:40:09.377Z,17.67
2018-12-29T13:42:40.642Z,16.17
2018-12-29T13:45:11.345Z,16.47
2018-12-29T13:47:42.193Z,16.80
2018-12-29T13:50:13.119Z,16.33
2018-12-29T13:52:43.882Z,15.67
2018-12-29T13:55:15.175Z,15.87
2018-12-29T13:57:46.002Z,17.07
2018-12-29T14:00:18.009Z,18.20
2018-12-29T14:02:48.954Z,17.47
2018-12-29T14:05:19.473Z,15.90
2018-12-29T14:07:50.372Z,14.87
2018-12-29T14:10:21.233Z,13.77
2018-12-29T14:12:52.930Z,14.80
2018-12-29T14:15:23.778Z,13.20
2018-12-29T14:17:54.962Z,12.30
2018-12-29T14:20:25.952Z,12.10
2018-12-29T14:22:56.781Z,12.63
2018-12-29T14:25:28.329Z,9.90
2018-12-29T14:27:59.238Z,10.33
2018-12-29T14:30:30.211Z,11.73
2018-12-29T14:33:01.160Z,11.20
2018-12-29T14:35:32.164Z,9.37
2018-12-29T14:38:03.472Z,10.80
2018-12-29T14:40:34.438Z,9.80
2018-12-29T14:43:06.051Z,8.73
2018-12-29T14:45:36.721Z,8.90
2018-12-29T14:48:08.134Z,10.60
2018-12-29T14:50:42.041Z,8.50
2018-12-29T14:53:12.966Z,8.17
2018-12-29T14:55:43.880Z,7.90
2018-12-29T14:58:15.008Z,7.27
2018-12-29T15:00:46.094Z,7.50
2018-12-29T15:03:17.118Z,7.30
2018-12-29T15:05:48.131Z,8.33
2018-12-29T15:08:19.212Z,8.87
2018-12-29T15:10:50.374Z,7.40
2018-12-29T15:13:21.421Z,7.00
2018-12-29T15:15:52.273Z,7.00
2018-12-29T15:18:23.540Z,6.50
2018-12-29T15:20:54.680Z,7.57
2018-12-29T15:23:25.998Z,6.90
2018-12-29T15:25:57.320Z,6.93
2018-12-29T15:28:28.145Z,6.63
2018-12-29T15:30:59.063Z,6.40
2018-12-29T15:33:32.182Z,5.83
2018-12-29T15:36:03.340Z,7.00
2018-12-29T15:38:34.147Z,7.03
2018-12-29T15:41:05.731Z,8.40
2018-12-29T15:43:36.965Z,7.70
2018-12-29T15:46:07.760Z,9.13
2018-12-29T15:48:39.262Z,8.53
2018-12-29T15:51:10.329Z,7.27
2018-12-29T15:53:41.186Z,8.97
2018-12-29T15:56:12.487Z,8.90
2018-12-29T15:58:43.605Z,10.93
2018-12-29T16:01:14.653Z,10.47
2018-12-29T16:03:45.857Z,11.20
2018-12-29T16:06:17.121Z,12.03
2018-12-29T16:08:48.845Z,10.17
2018-12-29T16:11:35.672Z,12.77
2018-12-29T16:13:55.033Z,12.47
2018-12-29T16:16:26.539Z,15.33
2018-12-29T16:18:59.007Z,15.23
2018-12-29T16:21:30.176Z,14.97
2018-12-29T16:24:01.315Z,17.43
2018-12-29T16:26:32.915Z,19.30
2018-12-29T16:29:04.961Z,18.83
2018-12-29T16:31:35.807Z,15.23
2018-12-29T16:34:07.723Z,17.00
2018-12-29T16:36:38.824Z,17.90
2018-12-29T16:39:09.804Z,15.47
2018-12-29T16:41:41.259Z,17.57
2018-12-29T16:44:12.282Z,13.47
2018-12-29T16:46:43.321Z,13.80
2018-12-29T16:49:13.999Z,15.50
2018-12-29T16:51:44.941Z,13.50
2018-12-29T16:54:15.780Z,14.50
2018-12-29T16:56:46.885Z,14.80
2018-12-29T16:59:18.030Z,13.00
2018-12-29T17:01:49.179Z,15.50
2018-12-29T17:04:19.907Z,13.80
2018-12-29T17:06:50.748Z,13.40
2018-12-29T17:09:22.041Z,11.37
2018-12-29T17:11:53.139Z,14.20
2018-12-29T17:14:24.478Z,13.37
2018-12-29T17:16:55.923Z,12.73
2018-12-29T17:19:27.294Z,13.40
2018-12-29T17:21:58.311Z,14.73
2018-12-29T17:24:29.142Z,11.93
2018-12-29T17:27:00.464Z,12.00
2018-12-29T17:29:31.392Z,11.53
2018-12-29T17:32:02.247Z,12.13
2018-12-29T17:34:33.038Z,11.60
2018-12-29T17:37:04.154Z,11.10
2018-12-29T17:39:35.051Z,12.03
2018-12-29T17:42:06.214Z,10.00
2018-12-29T17:44:37.099Z,10.50
2018-12-29T17:47:07.994Z,11.23
2018-12-29T17:49:39.311Z,10.53
2018-12-29T17:52:10.400Z,10.50
2018-12-29T17:54:41.189Z,9.37
2018-12-29T17:57:12.095Z,8.30
2018-12-29T17:59:42.970Z,8.90
2018-12-29T18:02:13.780Z,9.50
2018-12-29T18:04:44.878Z,8.43
2018-12-29T18:07:16.030Z,8.53
2018-12-29T18:09:47.171Z,8.33
2018-12-29T18:12:18.314Z,9.70
2018-12-29T18:14:49.767Z,7.90
2018-12-29T18:17:20.627Z,8.80
2018-12-29T18:19:51.845Z,10.10
2018-12-29T18:22:23.096Z,9.20
2018-12-29T18:24:57.516Z,7.20
2018-12-29T18:27:28.764Z,9.60
2018-12-29T18:30:00.291Z,8.10
2018-12-29T18:32:31.377Z,7.60
2018-12-29T18:35:02.111Z,9.27
2018-12-29T18:37:32.979Z,10.37
2018-12-29T18:40:04.498Z,9.77
2018-12-29T18:42:35.815Z,8.27
2018-12-29T18:45:09.239Z,9.63
2018-12-29T18:47:40.143Z,9.10
2018-12-29T18:50:10.977Z,8.00
2018-12-29T18:52:41.779Z,8.63
2018-12-29T18:55:12.971Z,8.37
2018-12-29T18:57:43.855Z,10.60
2018-12-29T19:00:17.893Z,8.10
2018-12-29T19:02:49.166Z,8.37
2018-12-29T19:05:20.042Z,7.93
2018-12-29T19:07:51.118Z,8.40
2018-12-29T19:10:22.396Z,9.93
2018-12-29T19:12:54.963Z,8.27
2018-12-29T19:15:27.601Z,8.20
2018-12-29T19:17:59.099Z,8.40
2018-12-29T19:20:30.847Z,7.20
2018-12-29T19:23:01.991Z,6.57
2018-12-29T19:25:33.145Z,7.00
2018-12-29T19:28:04.396Z,8.07
2018-12-29T19:30:35.468Z,5.60
2018-12-29T19:33:06.601Z,7.20
2018-12-29T19:35:37.710Z,5.17
2018-12-29T19:38:08.880Z,6.67
2018-12-29T19:40:42.587Z,5.63
2018-12-29T19:43:13.913Z,4.03
2018-12-29T19:45:44.924Z,4.27
2018-12-29T19:48:15.613Z,4.73
2018-12-29T19:50:46.531Z,4.50
2018-12-29T19:53:19.397Z,3.60
2018-12-29T19:55:50.212Z,3.90
2018-12-29T19:58:21.094Z,3.30
2018-12-29T20:00:51.877Z,3.90
2018-12-29T20:03:22.908Z,3.10
2018-12-29T20:05:54.480Z,2.53
2018-12-29T20:08:25.213Z,2.20
2018-12-29T20:10:59.788Z,1.90
2018-12-29T20:13:30.702Z,2.00
2018-12-29T20:16:01.967Z,2.00
2018-12-29T20:18:33.235Z,1.90
2018-12-29T20:21:06.088Z,1.47
2018-12-29T20:23:38.548Z,3.10
2018-12-29T20:26:09.417Z,1.63
2018-12-29T20:28:42.019Z,1.17
2018-12-29T20:31:13.294Z,1.53
2018-12-29T20:33:44.066Z,1.80
2018-12-29T20:36:15.019Z,1.83
2018-12-29T20:38:46.090Z,3.30
2018-12-29T20:41:19.847Z,2.40
2018-12-29T20:43:50.755Z,2.30
2018-12-29T20:46:21.797Z,2.47
2018-12-29T20:48:52.667Z,2.07
2018-12-29T20:51:24.085Z,2.10
2018-12-29T20:53:56.577Z,6.40
2018-12-29T20:56:28.119Z,5.80
2018-12-29T20:58:59.106Z,5.70
2018-12-29T21:01:29.944Z,5.13
2018-12-29T21:04:00.732Z,6.03
2018-12-29T21:06:31.701Z,8.80
2018-12-29T21:09:02.587Z,6.00
2018-12-29T21:11:35.622Z,5.70
2018-12-29T21:14:06.518Z,5.83
2018-12-29T21:16:37.716Z,5.70
2018-12-29T21:19:08.593Z,4.40
2018-12-29T21:21:39.623Z,4.90
2018-12-29T21:24:12.436Z,5.07
2018-12-29T21:26:43.354Z,4.50
2018-12-29T21:29:14.437Z,3.40
2018-12-29T21:31:45.283Z,3.10
2018-12-29T21:34:16.611Z,2.90
2018-12-29T21:36:48.134Z,2.37
2018-12-29T21:39:20.149Z,3.73
2018-12-29T21:41:51.238Z,2.27
2018-12-29T21:44:22.139Z,2.07
2018-12-29T21:46:53.078Z,2.03
2018-12-29T21:49:23.890Z,2.50
2018-12-29T21:51:54.873Z,2.00
2018-12-29T21:54:25.718Z,2.13
2018-12-29T21:56:56.684Z,1.17
2018-12-29T21:59:27.552Z,1.43
2018-12-29T22:01:58.677Z,1.47
2018-12-29T22:04:29.738Z,1.43
2018-12-29T22:07:01.153Z,2.17
2018-12-29T22:09:32.426Z,1.40
2018-12-29T22:12:03.394Z,2.27
2018-12-29T22:14:34.888Z,1.77
2018-12-29T22:17:06.348Z,1.13
2018-12-29T22:19:37.193Z,1.40
2018-12-29T22:22:08.206Z,1.17
2018-12-29T22:24:39.361Z,1.80
2018-12-29T22:27:10.599Z,1.83
2018-12-29T22:29:41.958Z,2.13
2018-12-29T22:32:13.203Z,1.97
2018-12-29T22:34:44.635Z,2.17
2018-12-29T22:37:15.723Z,1.40
2018-12-29T22:39:46.536Z,1.10
2018-12-29T22:42:17.429Z,2.13
2018-12-29T22:44:48.393Z,2.90
2018-12-29T22:47:19.356Z,2.23
2018-12-29T22:49:50.584Z,2.40
2018-12-29T22:52:21.403Z,3.80
2018-12-29T22:54:52.223Z,3.30
2018-12-29T22:57:23.044Z,3.23
2018-12-29T22:59:54.250Z,3.77
2018-12-29T23:02:25.321Z,3.60
2018-12-29T23:04:56.435Z,4.60
2018-12-29T23:07:27.462Z,3.90
2018-12-29T23:09:58.752Z,4.60
2018-12-29T23:12:29.829Z,4.63
2018-12-29T23:15:01.431Z,4.50
2018-12-29T23:17:32.649Z,4.30
2018-12-29T23:20:03.673Z,4.13
2018-12-29T23:22:34.979Z,5.93
2018-12-29T23:25:07.703Z,3.50
2018-12-29T23:27:39.314Z,4.83
2018-12-29T23:30:11.160Z,3.63
2018-12-29T23:32:43.192Z,3.10
2018-12-29T23:35:14.350Z,3.03
2018-12-29T23:37:45.418Z,3.60
2018-12-29T23:40:16.484Z,2.90
2018-12-29T23:42:47.184Z,3.87
2018-12-29T23:45:17.766Z,4.10
2018-12-29T23:47:48.862Z,2.40
2018-12-29T23:50:20.062Z,3.20
2018-12-29T23:52:52.553Z,3.50
2018-12-29T23:55:23.895Z,2.40
2018-12-29T23:57:54.698Z,2.60
